createdAt,value
2022-12-03T00:00:33.810Z,5.20
2022-12-03T00:03:01.924Z,5.47
2022-12-03T00:05:30.143Z,4.93
2022-12-03T00:07:58.451Z,5.30
2022-12-03T00:10:26.892Z,5.13
2022-12-03T00:12:54.790Z,4.83
2022-12-03T00:15:24.011Z,4.40
2022-12-03T00:17:51.831Z,5.00
2022-12-03T00:20:22.958Z,5.60
2022-12-03T00:22:51.739Z,5.37
2022-12-03T00:25:20.003Z,5.07
2022-12-03T00:27:47.977Z,5.40
2022-12-03T00:30:16.356Z,5.07
2022-12-03T00:32:45.557Z,4.87
2022-12-03T00:35:16.484Z,5.00
2022-12-03T00:37:44.672Z,5.00
2022-12-03T00:40:14.326Z,4.87
2022-12-03T00:42:42.416Z,5.37
2022-12-03T00:45:13.419Z,5.50
2022-12-03T00:47:41.287Z,5.03
2022-12-03T00:50:11.883Z,4.90
2022-12-03T00:52:39.854Z,4.80
2022-12-03T00:55:08.352Z,4.93
2022-12-03T00:57:36.312Z,5.03
2022-12-03T01:00:05.471Z,4.90
2022-12-03T01:02:33.758Z,5.30
2022-12-03T01:05:01.923Z,5.07
2022-12-03T01:07:31.755Z,5.53
2022-12-03T01:09:59.759Z,5.40
2022-12-03T01:12:27.638Z,5.57
2022-12-03T01:14:55.924Z,5.50
2022-12-03T01:17:24.021Z,5.23
2022-12-03T01:19:52.981Z,6.10
2022-12-03T01:22:22.515Z,5.97
2022-12-03T01:24:53.462Z,6.30
2022-12-03T01:27:21.691Z,6.43
2022-12-03T01:29:49.588Z,7.53
2022-12-03T01:32:16.619Z,5.83
2022-12-03T01:34:44.562Z,6.83
2022-12-03T01:37:12.559Z,7.20
2022-12-03T01:39:40.910Z,6.83
2022-12-03T01:42:13.911Z,7.30
2022-12-03T01:44:42.448Z,7.27
2022-12-03T01:47:16.147Z,7.80
2022-12-03T01:49:47.501Z,7.40
2022-12-03T01:52:17.810Z,6.90
2022-12-03T01:54:48.617Z,7.00
2022-12-03T01:57:23.761Z,7.90
2022-12-03T01:59:53.479Z,8.10
2022-12-03T02:02:25.325Z,8.30
2022-12-03T02:04:54.671Z,8.67
2022-12-03T02:07:26.615Z,8.93
2022-12-03T02:10:02.129Z,9.23
2022-12-03T02:12:38.842Z,9.83
2022-12-03T02:15:08.952Z,8.50
2022-12-03T02:17:37.184Z,9.40
2022-12-03T02:20:08.984Z,9.97
2022-12-03T02:22:45.749Z,9.67
2022-12-03T02:25:17.805Z,10.00
2022-12-03T02:27:46.578Z,9.97
2022-12-03T02:30:18.698Z,10.17
2022-12-03T02:32:48.296Z,9.57
2022-12-03T02:35:19.178Z,10.10
2022-12-03T02:37:51.522Z,9.40
2022-12-03T02:40:25.580Z,9.90
2022-12-03T02:42:59.054Z,10.50
2022-12-03T02:45:30.585Z,9.87
2022-12-03T02:48:02.231Z,10.10
2022-12-03T02:50:35.332Z,10.53
2022-12-03T02:53:08.522Z,10.33
2022-12-03T02:55:38.615Z,10.07
2022-12-03T02:58:07.677Z,10.47
2022-12-03T03:00:37.165Z,10.50
2022-12-03T03:03:07.109Z,10.37
2022-12-03T03:05:36.862Z,10.70
2022-12-03T03:08:05.778Z,9.60
2022-12-03T03:10:35.417Z,10.27
2022-12-03T03:13:08.729Z,10.00
2022-12-03T03:15:37.267Z,9.73
2022-12-03T03:18:06.633Z,11.13
2022-12-03T03:20:34.832Z,10.37
2022-12-03T03:23:14.101Z,10.90
2022-12-03T03:25:45.987Z,10.10
2022-12-03T03:28:16.349Z,9.73
2022-12-03T03:30:45.768Z,10.50
2022-12-03T03:33:17.752Z,10.93
2022-12-03T03:35:47.595Z,9.90
2022-12-03T03:38:16.593Z,9.97
2022-12-03T03:40:45.363Z,9.73
2022-12-03T03:43:15.696Z,10.13
2022-12-03T03:45:46.822Z,9.23
2022-12-03T03:48:16.217Z,10.03
2022-12-03T03:50:45.513Z,9.07
2022-12-03T03:53:14.183Z,10.07
2022-12-03T03:55:43.096Z,10.03
2022-12-03T03:58:11.537Z,10.00
2022-12-03T04:00:43.718Z,9.50
2022-12-03T04:03:13.213Z,9.57
2022-12-03T04:05:46.261Z,9.00
2022-12-03T04:08:18.883Z,9.13
2022-12-03T04:11:05.476Z,9.93
2022-12-03T04:13:38.508Z,9.43
2022-12-03T04:16:09.454Z,9.10
2022-12-03T04:18:49.908Z,9.50
2022-12-03T04:21:40.857Z,9.53
2022-12-03T04:24:10.477Z,8.97
2022-12-03T04:26:57.335Z,8.87
2022-12-03T04:29:26.331Z,9.00
2022-12-03T04:32:14.070Z,9.33
2022-12-03T04:34:59.905Z,8.23
2022-12-03T04:37:27.854Z,9.23
2022-12-03T04:39:55.853Z,8.23
2022-12-03T04:42:25.119Z,8.70
2022-12-03T04:44:57.009Z,9.90
2022-12-03T04:47:26.698Z,9.07
2022-12-03T04:49:54.886Z,8.03
2022-12-03T04:52:23.006Z,9.00
2022-12-03T04:54:50.974Z,8.23
2022-12-03T04:57:20.472Z,8.23
2022-12-03T04:59:48.555Z,8.20
2022-12-03T05:02:16.998Z,9.03
2022-12-03T05:04:46.749Z,8.77
2022-12-03T05:07:15.534Z,8.70
2022-12-03T05:09:43.624Z,8.47
2022-12-03T05:12:11.774Z,8.80
2022-12-03T05:14:40.230Z,9.17
2022-12-03T05:17:09.887Z,8.37
2022-12-03T05:19:57.270Z,8.47
2022-12-03T05:22:42.377Z,9.20
2022-12-03T05:25:12.163Z,9.40
2022-12-03T05:27:40.134Z,9.43
2022-12-03T05:30:11.108Z,9.43
2022-12-03T05:32:41.194Z,9.03
2022-12-03T05:35:13.952Z,9.00
2022-12-03T05:37:46.010Z,9.23
2022-12-03T05:40:15.154Z,9.00
2022-12-03T05:43:00.598Z,8.97
2022-12-03T05:45:34.782Z,8.03
2022-12-03T05:48:03.635Z,9.33
2022-12-03T05:50:40.524Z,8.30
2022-12-03T05:53:19.746Z,8.90
2022-12-03T05:55:49.326Z,8.17
2022-12-03T05:58:17.236Z,8.40
2022-12-03T06:00:45.176Z,8.60
2022-12-03T06:03:14.233Z,9.80
2022-12-03T06:05:42.332Z,8.40
2022-12-03T06:08:12.175Z,8.70
2022-12-03T06:10:41.637Z,8.70
2022-12-03T06:13:09.581Z,8.50
2022-12-03T06:15:43.434Z,8.97
2022-12-03T06:18:12.262Z,9.33
2022-12-03T06:20:41.011Z,8.23
2022-12-03T06:23:09.651Z,8.70
2022-12-03T06:25:37.674Z,8.90
2022-12-03T06:28:07.345Z,9.67
2022-12-03T06:30:35.974Z,8.77
2022-12-03T06:33:03.977Z,8.73
2022-12-03T06:35:32.070Z,9.60
2022-12-03T06:38:00.005Z,9.73
2022-12-03T06:40:31.400Z,8.47
2022-12-03T06:43:09.602Z,8.77
2022-12-03T06:45:43.224Z,9.57
2022-12-03T06:48:14.182Z,9.33
2022-12-03T06:50:42.292Z,8.50
2022-12-03T06:53:10.190Z,8.40
2022-12-03T06:55:38.130Z,9.00
2022-12-03T06:58:06.095Z,8.10
2022-12-03T07:00:35.947Z,8.03
2022-12-03T07:03:05.706Z,9.17
2022-12-03T07:05:33.586Z,8.63
2022-12-03T07:08:02.064Z,9.00
2022-12-03T07:10:30.377Z,8.47
2022-12-03T07:12:58.491Z,8.00
2022-12-03T07:15:26.555Z,8.37
2022-12-03T07:17:54.571Z,8.03
2022-12-03T07:20:26.337Z,8.77
2022-12-03T07:22:54.256Z,8.40
2022-12-03T07:25:23.696Z,8.23
2022-12-03T07:27:52.341Z,8.40
2022-12-03T07:30:20.930Z,8.57
2022-12-03T07:32:48.909Z,8.30
2022-12-03T07:35:17.386Z,8.27
2022-12-03T07:37:46.921Z,9.07
2022-12-03T07:40:15.241Z,8.70
2022-12-03T07:42:43.354Z,8.63
2022-12-03T07:45:11.989Z,8.97
2022-12-03T07:47:39.991Z,8.43
2022-12-03T07:50:09.184Z,8.60
2022-12-03T07:52:37.041Z,8.97
2022-12-03T07:55:08.208Z,9.00
2022-12-03T07:57:36.265Z,8.80
2022-12-03T08:00:05.493Z,8.77
2022-12-03T08:02:33.453Z,8.13
2022-12-03T08:05:01.453Z,8.63
2022-12-03T08:07:29.527Z,8.17
2022-12-03T08:09:58.460Z,8.20
2022-12-03T08:12:42.220Z,8.43
2022-12-03T08:15:13.653Z,8.40
2022-12-03T08:17:45.614Z,8.20
2022-12-03T08:20:17.537Z,8.03
2022-12-03T08:22:48.183Z,10.73
2022-12-03T08:25:28.257Z,11.53
2022-12-03T08:28:03.810Z,10.20
2022-12-03T08:30:32.030Z,8.80
2022-12-03T08:33:03.426Z,9.03
2022-12-03T08:35:32.458Z,8.93
2022-12-03T08:38:03.157Z,9.10
2022-12-03T08:40:36.205Z,9.70
2022-12-03T08:43:15.030Z,9.03
2022-12-03T08:45:43.280Z,9.47
2022-12-03T08:48:43.970Z,8.80
2022-12-03T08:51:21.711Z,9.73
2022-12-03T08:53:54.209Z,9.80
2022-12-03T08:56:31.363Z,9.47
2022-12-03T08:59:15.882Z,9.27
2022-12-03T09:01:51.464Z,8.63
2022-12-03T09:04:30.144Z,8.77
2022-12-03T09:06:59.558Z,9.80
2022-12-03T09:09:27.943Z,10.13
2022-12-03T09:11:57.174Z,10.00
2022-12-03T09:14:27.104Z,9.83
2022-12-03T09:16:56.697Z,10.80
2022-12-03T09:19:26.262Z,10.20
2022-12-03T09:21:55.508Z,11.43
2022-12-03T09:24:24.647Z,16.93
2022-12-03T09:26:52.719Z,10.37
2022-12-03T09:29:20.921Z,11.37
2022-12-03T09:31:50.646Z,9.90
2022-12-03T09:34:20.707Z,10.03
2022-12-03T09:36:48.701Z,10.80
2022-12-03T09:39:18.281Z,10.00
2022-12-03T09:41:46.512Z,11.43
2022-12-03T09:44:17.909Z,11.43
2022-12-03T09:46:47.859Z,9.97
2022-12-03T09:49:19.716Z,10.80
2022-12-03T09:51:47.820Z,10.43
2022-12-03T09:54:24.194Z,10.67
2022-12-03T09:56:54.587Z,10.07
2022-12-03T09:59:24.061Z,10.53
2022-12-03T10:01:55.452Z,11.60
2022-12-03T10:04:25.727Z,15.40
2022-12-03T10:06:54.063Z,11.43
2022-12-03T10:09:26.893Z,11.20
2022-12-03T10:11:56.358Z,11.00
2022-12-03T10:14:24.923Z,11.10
2022-12-03T10:16:53.445Z,11.77
2022-12-03T10:19:27.391Z,12.40
2022-12-03T10:21:55.585Z,12.53
2022-12-03T10:24:26.715Z,12.00
2022-12-03T10:26:56.431Z,11.53
2022-12-03T10:29:32.882Z,12.90
2022-12-03T10:32:03.520Z,13.23
2022-12-03T10:34:35.188Z,13.90
2022-12-03T10:37:15.876Z,13.53
2022-12-03T10:39:56.182Z,13.07
2022-12-03T10:42:24.978Z,13.00
2022-12-03T10:45:08.768Z,13.93
2022-12-03T10:47:36.668Z,13.57
2022-12-03T10:50:15.522Z,13.87
2022-12-03T10:52:43.412Z,13.60
2022-12-03T10:55:13.142Z,12.60
2022-12-03T10:57:45.496Z,13.77
2022-12-03T11:00:18.086Z,14.33
2022-12-03T11:02:50.419Z,14.30
2022-12-03T11:05:27.702Z,13.17
2022-12-03T11:07:56.097Z,13.77
2022-12-03T11:10:24.297Z,15.23
2022-12-03T11:13:28.695Z,14.37
2022-12-03T11:16:16.899Z,14.60
2022-12-03T11:19:03.966Z,13.53
2022-12-03T11:21:34.751Z,14.23
2022-12-03T11:24:19.441Z,15.97
2022-12-03T11:27:21.626Z,15.47
2022-12-03T11:30:02.034Z,15.00
2022-12-03T11:33:01.750Z,15.63
2022-12-03T11:35:38.246Z,14.53
2022-12-03T11:38:41.059Z,15.70
2022-12-03T11:41:15.122Z,15.83
2022-12-03T11:44:07.072Z,14.73
2022-12-03T11:46:45.955Z,15.53
2022-12-03T11:49:34.353Z,15.43
2022-12-03T11:52:14.804Z,17.00
2022-12-03T11:54:50.986Z,17.00
2022-12-03T11:57:32.811Z,16.53
2022-12-03T12:00:16.590Z,17.17
2022-12-03T12:02:44.471Z,16.10
2022-12-03T12:05:22.753Z,16.50
2022-12-03T12:07:51.737Z,16.00
2022-12-03T12:10:52.727Z,17.97
2022-12-03T12:13:54.427Z,17.63
2022-12-03T12:16:52.839Z,16.53
2022-12-03T12:19:35.911Z,17.03
2022-12-03T12:22:20.895Z,18.13
2022-12-03T12:24:52.469Z,17.53
2022-12-03T12:27:24.720Z,16.03
2022-12-03T12:29:57.380Z,16.87
2022-12-03T12:32:28.303Z,16.80
2022-12-03T12:35:00.625Z,17.60
2022-12-03T12:37:36.100Z,17.67
2022-12-03T12:40:13.743Z,18.30
2022-12-03T12:42:53.346Z,16.83
2022-12-03T12:45:24.934Z,17.73
2022-12-03T12:48:03.106Z,17.30
2022-12-03T12:50:32.896Z,19.27
2022-12-03T12:53:07.436Z,16.97
2022-12-03T12:55:35.682Z,17.13
2022-12-03T12:58:08.742Z,17.07
2022-12-03T13:00:38.647Z,17.17
2022-12-03T13:03:08.972Z,18.73
2022-12-03T13:05:40.828Z,17.53
2022-12-03T13:08:21.477Z,37.10
2022-12-03T13:10:50.309Z,28.23
2022-12-03T13:13:31.400Z,18.10
2022-12-03T13:16:07.404Z,17.10
2022-12-03T13:18:46.869Z,17.73
2022-12-03T13:21:22.393Z,18.23
2022-12-03T13:23:52.371Z,18.73
2022-12-03T13:26:36.448Z,18.63
2022-12-03T13:29:13.014Z,19.20
2022-12-03T13:31:53.705Z,18.70
2022-12-03T13:34:23.853Z,18.03
2022-12-03T13:36:57.506Z,18.70
2022-12-03T13:39:30.959Z,18.40
2022-12-03T13:42:39.361Z,18.47
2022-12-03T13:45:34.391Z,17.57
2022-12-03T13:48:16.150Z,17.90
2022-12-03T13:50:48.885Z,18.03
2022-12-03T13:53:23.097Z,17.83
2022-12-03T13:55:53.328Z,18.80
2022-12-03T13:58:21.518Z,18.23
2022-12-03T14:00:49.742Z,19.37
2022-12-03T14:03:19.767Z,19.60
2022-12-03T14:05:48.312Z,18.00
2022-12-03T14:08:16.699Z,18.70
2022-12-03T14:10:44.898Z,19.43
2022-12-03T14:13:16.912Z,17.37
2022-12-03T14:15:48.564Z,18.10
2022-12-03T14:18:16.629Z,17.07
2022-12-03T14:20:48.246Z,18.57
2022-12-03T14:23:16.639Z,17.83
2022-12-03T14:25:44.897Z,17.87
2022-12-03T14:28:12.798Z,18.60
2022-12-03T14:30:41.382Z,19.23
2022-12-03T14:33:09.246Z,18.10
2022-12-03T14:35:37.283Z,18.27
2022-12-03T14:38:06.622Z,18.60
2022-12-03T14:40:34.700Z,18.57
2022-12-03T14:43:03.277Z,18.87
2022-12-03T14:45:41.418Z,18.13
2022-12-03T14:48:09.432Z,17.73
2022-12-03T14:50:37.317Z,17.67
2022-12-03T14:53:06.835Z,17.33
2022-12-03T14:55:35.032Z,17.00
2022-12-03T14:58:03.529Z,17.63
2022-12-03T15:00:31.434Z,17.43
2022-12-03T15:02:59.838Z,17.33
2022-12-03T15:05:28.945Z,16.27
2022-12-03T15:07:57.993Z,16.83
2022-12-03T15:10:27.396Z,16.93
2022-12-03T15:12:55.259Z,16.93
2022-12-03T15:15:23.644Z,16.87
2022-12-03T15:17:52.186Z,16.43
2022-12-03T15:20:22.548Z,16.80
2022-12-03T15:22:51.780Z,17.37
2022-12-03T15:25:24.369Z,18.27
2022-12-03T15:27:54.038Z,18.13
2022-12-03T15:30:22.371Z,18.83
2022-12-03T15:32:50.332Z,18.87
2022-12-03T15:35:18.774Z,17.93
2022-12-03T15:37:47.389Z,17.20
2022-12-03T15:40:15.732Z,18.23
2022-12-03T15:42:43.439Z,19.03
2022-12-03T15:45:15.347Z,19.23
2022-12-03T15:47:43.318Z,17.77
2022-12-03T15:50:12.160Z,17.47
2022-12-03T15:52:39.948Z,22.97
2022-12-03T15:55:08.542Z,27.30
2022-12-03T15:57:36.246Z,17.53
2022-12-03T16:00:05.009Z,22.93
2022-12-03T16:02:41.737Z,19.07
2022-12-03T16:05:12.031Z,16.60
2022-12-03T16:07:40.283Z,17.37
2022-12-03T16:10:10.521Z,15.80
2022-12-03T16:12:40.677Z,17.50
2022-12-03T16:15:11.867Z,19.13
2022-12-03T16:17:40.953Z,16.30
2022-12-03T16:20:09.997Z,14.33
2022-12-03T16:22:38.712Z,14.60
2022-12-03T16:25:09.336Z,15.77
2022-12-03T16:27:37.926Z,17.07
2022-12-03T16:30:07.689Z,18.37
2022-12-03T16:32:35.402Z,15.13
2022-12-03T16:35:05.308Z,14.70
2022-12-03T16:37:33.136Z,14.43
2022-12-03T16:40:04.452Z,15.30
2022-12-03T16:42:32.468Z,15.27
2022-12-03T16:45:23.268Z,14.07
2022-12-03T16:47:51.585Z,15.27
2022-12-03T16:50:27.591Z,13.53
2022-12-03T16:52:58.189Z,15.17
2022-12-03T16:55:26.500Z,15.47
2022-12-03T16:57:54.580Z,16.03
2022-12-03T17:00:23.012Z,14.03
2022-12-03T17:02:51.064Z,15.20
2022-12-03T17:05:21.830Z,13.73
2022-12-03T17:07:51.908Z,13.03
2022-12-03T17:10:21.167Z,14.00
2022-12-03T17:15:40.260Z,13.53
2022-12-03T17:18:09.072Z,14.37
2022-12-03T17:20:40.922Z,14.30
2022-12-03T17:23:09.718Z,13.13
2022-12-03T17:25:38.958Z,13.43
2022-12-03T17:28:06.895Z,14.27
2022-12-03T17:30:34.624Z,13.27
2022-12-03T17:33:02.392Z,13.50
2022-12-03T17:35:30.448Z,13.30
2022-12-03T17:37:59.577Z,13.07
2022-12-03T17:40:27.343Z,12.80
2022-12-03T17:42:55.076Z,13.83
2022-12-03T17:45:23.050Z,12.87
2022-12-03T17:47:50.867Z,13.17
2022-12-03T17:50:18.794Z,13.43
2022-12-03T17:52:46.650Z,13.20
2022-12-03T17:55:26.151Z,12.43
2022-12-03T17:57:59.123Z,13.27
2022-12-03T18:00:26.896Z,14.77
2022-12-03T18:02:55.155Z,12.57
2022-12-03T18:05:24.015Z,13.67
2022-12-03T18:07:52.062Z,12.40
2022-12-03T18:10:21.165Z,12.97
2022-12-03T18:12:48.891Z,15.07
2022-12-03T18:15:16.808Z,14.00
2022-12-03T18:17:44.504Z,13.87
2022-12-03T18:20:12.647Z,12.50
2022-12-03T18:22:40.569Z,13.17
2022-12-03T18:25:09.855Z,15.23
2022-12-03T18:27:39.585Z,14.70
2022-12-03T18:30:08.626Z,13.13
2022-12-03T18:32:37.965Z,13.53
2022-12-03T18:35:07.300Z,13.57
2022-12-03T18:37:35.300Z,14.73
2022-12-03T18:40:12.394Z,14.07
2022-12-03T18:42:43.776Z,13.80
2022-12-03T18:45:14.685Z,14.10
2022-12-03T18:47:43.068Z,13.60
2022-12-03T18:50:12.502Z,13.60
2022-12-03T18:52:40.707Z,13.80
2022-12-03T18:55:09.791Z,12.77
2022-12-03T18:57:37.545Z,13.27
2022-12-03T19:00:13.475Z,14.07
2022-12-03T19:05:30.058Z,15.37
2022-12-03T19:07:58.276Z,15.10
2022-12-03T19:10:26.151Z,13.70
2022-12-03T19:12:54.124Z,16.07
2022-12-03T19:15:23.921Z,12.90
2022-12-03T19:17:52.009Z,15.10
2022-12-03T19:20:19.987Z,14.37
2022-12-03T19:22:47.791Z,15.07
2022-12-03T19:25:15.646Z,13.40
2022-12-03T19:27:43.381Z,15.50
2022-12-03T19:30:12.051Z,15.17
2022-12-03T19:32:41.266Z,15.33
2022-12-03T19:35:11.193Z,15.67
2022-12-03T19:37:39.078Z,14.83
2022-12-03T19:40:10.076Z,14.80
2022-12-03T19:42:37.873Z,14.87
2022-12-03T19:45:06.680Z,16.23
2022-12-03T19:47:34.460Z,15.63
2022-12-03T19:50:03.625Z,15.83
2022-12-03T19:52:31.600Z,15.83
2022-12-03T19:54:59.344Z,16.97
2022-12-03T19:57:27.131Z,17.07
2022-12-03T19:59:55.184Z,16.43
2022-12-03T20:02:23.337Z,16.73
2022-12-03T20:04:51.370Z,16.13
2022-12-03T20:07:20.450Z,16.90
2022-12-03T20:09:51.876Z,17.23
2022-12-03T20:12:21.366Z,16.07
2022-12-03T20:14:56.808Z,17.47
2022-12-03T20:17:39.930Z,16.50
2022-12-03T21:09:39.859Z,30.60
2022-12-03T22:06:30.625Z,18.70
2022-12-03T22:09:12.650Z,19.23
2022-12-03T22:11:43.907Z,19.30
2022-12-03T22:14:19.033Z,19.33
2022-12-03T22:22:10.012Z,19.90
2022-12-03T22:29:06.261Z,18.27
2022-12-03T23:01:29.088Z,19.80
2022-12-03T23:25:04.538Z,19.40
2022-12-03T23:27:34.415Z,18.50
